createdAt,value
2023-03-06T00:01:05.563Z,76.44
2023-03-06T00:03:33.935Z,76.60
2023-03-06T00:06:01.816Z,76.59
2023-03-06T00:08:30.757Z,76.61
2023-03-06T00:10:59.267Z,76.45
2023-03-06T00:13:30.295Z,76.42
2023-03-06T00:16:01.177Z,76.77
2023-03-06T00:18:30.021Z,77.00
2023-03-06T00:20:57.884Z,76.77
2023-03-06T00:23:26.160Z,76.68
2023-03-06T00:25:53.915Z,76.32
2023-03-06T00:28:21.591Z,75.98
2023-03-06T00:30:50.288Z,75.54
2023-03-06T00:33:18.001Z,75.21
2023-03-06T00:35:45.768Z,75.33
2023-03-06T00:38:14.291Z,74.98
2023-03-06T00:40:42.100Z,74.67
2023-03-06T00:43:11.259Z,74.55
2023-03-06T00:45:39.034Z,75.17
2023-03-06T00:48:07.262Z,75.29
2023-03-06T00:50:35.453Z,74.95
2023-03-06T00:53:03.236Z,75.07
2023-03-06T00:55:33.658Z,75.39
2023-03-06T00:58:01.490Z,74.97
2023-03-06T01:00:29.249Z,74.57
2023-03-06T01:02:57.033Z,74.35
2023-03-06T01:05:25.694Z,74.08
2023-03-06T01:07:53.761Z,74.06
2023-03-06T01:10:22.573Z,74.14
2023-03-06T01:12:50.291Z,73.50
2023-03-06T01:15:19.040Z,73.52
2023-03-06T01:17:46.927Z,73.78
2023-03-06T01:20:25.578Z,73.29
2023-03-06T01:22:55.667Z,74.27
2023-03-06T01:25:26.199Z,74.40
2023-03-06T01:27:54.089Z,74.28
2023-03-06T01:30:22.422Z,75.25
2023-03-06T01:32:51.029Z,74.60
2023-03-06T01:35:19.732Z,75.45
2023-03-06T01:37:48.445Z,75.63
2023-03-06T01:40:17.138Z,75.95
2023-03-06T01:42:46.853Z,75.43
2023-03-06T01:45:15.413Z,75.93
2023-03-06T01:47:44.935Z,75.36
2023-03-06T01:50:14.020Z,76.13
2023-03-06T01:52:58.691Z,75.90
2023-03-06T01:55:34.795Z,75.66
2023-03-06T01:58:17.186Z,76.77
2023-03-06T02:00:46.523Z,76.60
2023-03-06T02:03:23.817Z,75.92
2023-03-06T02:05:52.677Z,76.10
2023-03-06T02:08:24.218Z,76.14
2023-03-06T02:11:19.328Z,76.03
2023-03-06T02:13:50.222Z,76.78
2023-03-06T02:16:26.084Z,77.21
2023-03-06T02:18:55.364Z,77.15
2023-03-06T02:21:41.362Z,77.26
2023-03-06T02:24:22.941Z,77.80
2023-03-06T02:26:53.674Z,77.30
2023-03-06T02:29:28.064Z,77.33
2023-03-06T02:31:56.459Z,78.58
2023-03-06T02:34:25.595Z,78.44
2023-03-06T02:37:05.813Z,78.73
2023-03-06T02:39:40.210Z,78.31
2023-03-06T02:42:21.220Z,78.30
2023-03-06T02:44:53.157Z,77.81
2023-03-06T02:47:20.906Z,77.65
2023-03-06T02:49:48.774Z,77.41
2023-03-06T02:52:16.507Z,78.09
2023-03-06T02:54:44.236Z,78.07
2023-03-06T02:57:12.336Z,78.00
2023-03-06T02:59:40.117Z,78.40
2023-03-06T03:02:07.927Z,78.29
2023-03-06T03:04:35.947Z,78.62
2023-03-06T03:07:04.588Z,78.59
2023-03-06T03:09:37.044Z,77.85
2023-03-06T03:12:08.117Z,77.73
2023-03-06T03:14:36.232Z,77.46
2023-03-06T03:17:04.960Z,77.25
2023-03-06T03:19:33.745Z,77.27
2023-03-06T03:22:01.725Z,77.40
2023-03-06T03:24:30.510Z,77.17
2023-03-06T03:26:59.328Z,77.65
2023-03-06T03:29:28.034Z,77.16
2023-03-06T03:31:55.858Z,76.57
2023-03-06T03:34:23.660Z,76.92
2023-03-06T03:36:53.305Z,76.46
2023-03-06T03:39:21.974Z,76.57
2023-03-06T03:41:51.066Z,76.84
2023-03-06T03:44:18.805Z,76.49
2023-03-06T03:46:46.559Z,76.70
2023-03-06T03:49:14.923Z,76.17
2023-03-06T03:51:43.910Z,76.39
2023-03-06T03:54:11.707Z,76.04
2023-03-06T03:56:40.882Z,76.51
2023-03-06T03:59:09.488Z,75.97
2023-03-06T04:01:39.524Z,75.62
2023-03-06T04:04:07.659Z,75.61
2023-03-06T04:06:35.421Z,76.05
2023-03-06T04:09:04.652Z,76.22
2023-03-06T04:11:33.456Z,76.60
2023-03-06T04:14:01.278Z,76.18
2023-03-06T04:16:29.089Z,75.64
2023-03-06T04:18:57.829Z,75.99
2023-03-06T04:21:25.556Z,76.17
2023-03-06T04:23:54.210Z,76.53
2023-03-06T04:26:22.029Z,76.20
2023-03-06T04:28:49.827Z,76.44
2023-03-06T04:31:17.609Z,77.16
2023-03-06T04:33:45.365Z,76.86
2023-03-06T04:36:45.201Z,76.85
2023-03-06T04:39:15.123Z,76.54
2023-03-06T04:41:43.294Z,76.02
2023-03-06T04:44:12.120Z,76.29
2023-03-06T04:46:40.790Z,76.20
2023-03-06T04:49:08.550Z,75.92
2023-03-06T04:51:37.488Z,75.03
2023-03-06T04:54:06.352Z,75.45
2023-03-06T04:56:34.785Z,75.45
2023-03-06T04:59:04.837Z,75.63
2023-03-06T05:01:33.601Z,75.31
2023-03-06T05:04:02.316Z,76.25
2023-03-06T05:06:30.971Z,76.60
2023-03-06T05:08:59.767Z,75.62
2023-03-06T05:11:28.637Z,77.12
2023-03-06T05:13:58.105Z,77.15
2023-03-06T05:16:27.586Z,76.68
2023-03-06T05:18:56.348Z,76.37
2023-03-06T05:21:25.773Z,77.16
2023-03-06T05:23:53.842Z,77.96
2023-03-06T05:26:22.589Z,77.36
2023-03-06T05:28:51.261Z,77.21
2023-03-06T05:31:19.977Z,77.89
2023-03-06T05:33:48.669Z,78.12
2023-03-06T05:36:17.387Z,77.80
2023-03-06T05:38:46.020Z,77.85
2023-03-06T05:41:15.459Z,78.60
2023-03-06T05:43:44.970Z,77.87
2023-03-06T05:46:13.739Z,79.72
2023-03-06T05:48:42.415Z,79.72
2023-03-06T05:51:12.193Z,78.53
2023-03-06T05:53:41.634Z,78.52
2023-03-06T05:56:10.411Z,78.79
2023-03-06T05:58:39.345Z,79.44
2023-03-06T06:01:18.761Z,78.81
2023-03-06T06:03:48.484Z,79.92
2023-03-06T06:06:16.551Z,79.36
2023-03-06T06:08:45.336Z,79.42
2023-03-06T06:11:15.028Z,79.41
2023-03-06T06:13:44.559Z,79.70
2023-03-06T06:16:16.980Z,79.59
2023-03-06T06:18:46.879Z,79.31
2023-03-06T06:21:16.534Z,79.11
2023-03-06T06:23:46.350Z,79.12
2023-03-06T06:26:14.999Z,78.55
2023-03-06T06:28:42.770Z,78.61
2023-03-06T06:31:13.295Z,78.70
2023-03-06T06:33:42.494Z,78.39
2023-03-06T06:36:22.147Z,78.90
2023-03-06T06:38:52.363Z,79.22
2023-03-06T06:41:46.961Z,78.91
2023-03-06T06:44:15.613Z,78.87
2023-03-06T06:49:36.220Z,78.75
2023-03-06T06:52:07.480Z,78.82
2023-03-06T06:54:36.970Z,79.42
2023-03-06T06:57:04.916Z,78.70
2023-03-06T06:59:32.724Z,79.20
2023-03-06T07:02:02.244Z,79.08
2023-03-06T07:04:30.962Z,77.95
2023-03-06T07:07:01.251Z,77.77
2023-03-06T07:09:31.074Z,77.64
2023-03-06T07:12:00.039Z,77.11
2023-03-06T07:14:28.793Z,77.21
2023-03-06T07:16:58.602Z,77.93
2023-03-06T07:19:28.141Z,77.69
2023-03-06T07:21:57.614Z,78.47
2023-03-06T07:24:28.243Z,77.33
2023-03-06T07:26:56.120Z,76.25
2023-03-06T07:29:25.575Z,75.41
2023-03-06T07:31:55.118Z,75.75
2023-03-06T07:34:23.800Z,75.40
2023-03-06T07:36:52.465Z,76.17
2023-03-06T07:39:21.998Z,75.75
2023-03-06T07:41:52.464Z,76.66
2023-03-06T07:44:22.278Z,76.74
2023-03-06T07:46:51.806Z,76.81
2023-03-06T07:49:21.388Z,76.08
2023-03-06T07:51:50.807Z,76.37
2023-03-06T07:54:20.289Z,75.44
2023-03-06T07:56:53.699Z,75.91
2023-03-06T07:59:23.153Z,77.09
2023-03-06T08:01:56.074Z,77.13
2023-03-06T08:04:25.610Z,76.75
2023-03-06T08:06:57.645Z,75.70
2023-03-06T08:09:27.302Z,76.83
2023-03-06T08:11:57.196Z,75.04
2023-03-06T08:14:26.841Z,75.23
2023-03-06T08:16:57.289Z,75.97
2023-03-06T08:19:25.007Z,76.58
2023-03-06T08:21:54.479Z,75.52
2023-03-06T08:24:23.155Z,77.36
2023-03-06T08:26:51.890Z,76.18
2023-03-06T08:29:21.385Z,75.76
2023-03-06T08:31:51.624Z,75.59
2023-03-06T08:34:25.262Z,74.26
2023-03-06T08:36:54.264Z,74.64
2023-03-06T08:39:23.843Z,76.32
2023-03-06T08:41:53.315Z,76.97
2023-03-06T08:44:22.737Z,76.36
2023-03-06T08:46:50.559Z,74.05
2023-03-06T08:49:19.557Z,73.04
2023-03-06T08:51:48.300Z,72.38
2023-03-06T08:54:17.012Z,70.43
2023-03-06T08:56:45.716Z,70.74
2023-03-06T08:59:14.777Z,72.29
2023-03-06T09:01:42.652Z,69.52
2023-03-06T09:04:12.294Z,69.86
2023-03-06T09:06:43.159Z,70.60
2023-03-06T09:09:13.047Z,70.22
2023-03-06T09:11:41.738Z,70.92
2023-03-06T09:14:10.419Z,69.26
2023-03-06T09:16:39.425Z,69.74
2023-03-06T09:19:07.360Z,69.40
2023-03-06T09:21:35.058Z,70.19
2023-03-06T09:24:07.192Z,69.37
2023-03-06T09:26:45.378Z,67.79
2023-03-06T09:29:16.616Z,67.67
2023-03-06T09:31:46.396Z,66.09
2023-03-06T09:34:15.319Z,66.19
2023-03-06T09:36:55.950Z,65.50
2023-03-06T09:39:24.991Z,62.44
2023-03-06T09:41:57.700Z,62.54
2023-03-06T09:44:34.017Z,62.04
2023-03-06T09:47:38.797Z,61.89
2023-03-06T09:50:28.781Z,62.41
2023-03-06T09:53:33.078Z,59.18
2023-03-06T09:56:33.567Z,59.97
2023-03-06T09:59:25.142Z,60.77
2023-03-06T10:02:34.381Z,59.19
2023-03-06T10:05:09.484Z,57.38
2023-03-06T10:08:36.759Z,59.31
2023-03-06T10:11:11.288Z,59.12
2023-03-06T10:14:18.998Z,59.40
2023-03-06T10:16:47.868Z,56.05
2023-03-06T10:19:20.772Z,56.93
2023-03-06T10:22:21.733Z,55.68
2023-03-06T10:25:10.412Z,57.63
2023-03-06T10:27:57.904Z,54.15
2023-03-06T10:30:48.597Z,53.55
2023-03-06T10:33:47.901Z,54.90
2023-03-06T10:36:21.329Z,55.52
2023-03-06T10:38:50.521Z,52.83
2023-03-06T10:41:31.809Z,54.17
2023-03-06T10:44:01.162Z,55.02
2023-03-06T10:46:42.592Z,55.33
2023-03-06T10:49:35.684Z,54.23
2023-03-06T10:52:10.382Z,53.22
2023-03-06T10:54:43.870Z,53.29
2023-03-06T10:57:32.253Z,52.80
2023-03-06T11:00:08.712Z,53.81
2023-03-06T11:02:41.266Z,54.01
2023-03-06T11:05:21.572Z,52.99
2023-03-06T11:08:00.364Z,54.50
2023-03-06T11:10:32.030Z,54.47
2023-03-06T11:13:23.838Z,54.91
2023-03-06T11:16:30.772Z,54.61
2023-03-06T11:19:05.687Z,55.28
2023-03-06T11:21:40.559Z,55.35
2023-03-06T11:24:20.978Z,54.59
2023-03-06T11:27:02.274Z,54.64
2023-03-06T11:29:46.093Z,55.47
2023-03-06T11:32:24.367Z,57.63
2023-03-06T11:35:21.694Z,58.62
2023-03-06T11:38:14.601Z,58.19
2023-03-06T11:40:56.106Z,58.68
2023-03-06T11:44:17.548Z,58.99
2023-03-06T11:47:15.883Z,58.14
2023-03-06T11:50:06.491Z,60.30
2023-03-06T11:52:57.758Z,58.13
2023-03-06T11:55:48.614Z,57.30
2023-03-06T11:59:07.860Z,58.65
2023-03-06T12:02:16.480Z,58.61
2023-03-06T12:05:53.410Z,58.25
2023-03-06T12:08:47.075Z,59.10
2023-03-06T12:11:43.814Z,58.32
2023-03-06T12:14:30.952Z,57.63
2023-03-06T12:17:31.014Z,60.01
2023-03-06T12:20:22.423Z,58.40
2023-03-06T12:23:14.630Z,59.65
2023-03-06T12:26:40.486Z,58.64
2023-03-06T12:30:00.232Z,59.93
2023-03-06T12:32:41.750Z,58.79
2023-03-06T12:35:47.193Z,59.21
2023-03-06T12:39:04.304Z,58.55
2023-03-06T12:42:04.935Z,58.63
2023-03-06T12:45:10.138Z,58.16
2023-03-06T12:47:46.755Z,59.00
2023-03-06T12:50:38.431Z,58.86
2023-03-06T12:53:21.238Z,58.92
2023-03-06T12:55:52.374Z,58.98
2023-03-06T12:58:56.289Z,59.26
2023-03-06T13:02:05.456Z,59.52
2023-03-06T13:05:13.589Z,60.42
2023-03-06T13:08:46.038Z,60.07
2023-03-06T13:11:49.792Z,59.94
2023-03-06T13:14:28.324Z,60.24
2023-03-06T13:17:35.489Z,59.46
2023-03-06T13:20:14.947Z,58.38
2023-03-06T13:22:47.344Z,59.15
2023-03-06T13:25:19.931Z,58.67
2023-03-06T13:27:54.739Z,58.39
2023-03-06T13:30:45.326Z,58.69
2023-03-06T13:33:30.226Z,59.84
2023-03-06T13:36:24.274Z,61.10
2023-03-06T13:38:55.179Z,60.08
2023-03-06T13:41:26.217Z,60.29
2023-03-06T13:44:00.301Z,60.16
2023-03-06T13:46:40.214Z,60.35
2023-03-06T13:49:09.639Z,59.55
2023-03-06T13:52:23.444Z,59.20
2023-03-06T13:55:42.332Z,58.51
2023-03-06T13:58:24.588Z,58.87
2023-03-06T14:01:46.858Z,58.35
2023-03-06T14:04:29.140Z,57.73
2023-03-06T14:07:09.589Z,57.91
2023-03-06T14:09:46.951Z,58.38
2023-03-06T14:12:31.677Z,59.22
2023-03-06T14:15:21.430Z,59.00
2023-03-06T14:18:23.841Z,58.77
2023-03-06T14:21:05.790Z,57.80
2023-03-06T14:23:43.665Z,58.01
2023-03-06T14:26:27.748Z,59.48
2023-03-06T14:29:00.632Z,58.45
2023-03-06T14:31:34.623Z,58.36
2023-03-06T14:34:21.229Z,58.85
2023-03-06T14:37:02.173Z,59.83
2023-03-06T14:39:44.274Z,60.19
2023-03-06T14:42:29.903Z,59.42
2023-03-06T14:45:25.202Z,60.73
2023-03-06T14:47:54.213Z,60.27
2023-03-06T14:50:31.236Z,60.14
2023-03-06T14:53:14.342Z,60.60
2023-03-06T14:55:59.109Z,60.55
2023-03-06T14:58:38.710Z,61.06
2023-03-06T15:01:11.204Z,61.77
2023-03-06T15:03:52.390Z,62.34
2023-03-06T15:06:25.971Z,61.12
2023-03-06T15:09:34.705Z,60.23
2023-03-06T15:12:33.987Z,62.02
2023-03-06T15:15:19.058Z,62.96
2023-03-06T15:17:48.567Z,62.78
2023-03-06T15:20:43.908Z,63.34
2023-03-06T15:23:42.426Z,63.33
2023-03-06T15:26:36.984Z,63.88
2023-03-06T15:29:10.347Z,63.51
2023-03-06T15:31:49.589Z,63.20
2023-03-06T15:34:23.929Z,62.83
2023-03-06T15:36:58.527Z,63.98
2023-03-06T15:39:38.075Z,68.96
2023-03-06T15:42:23.606Z,71.29
2023-03-06T15:45:00.164Z,71.33
2023-03-06T15:47:30.639Z,72.04
2023-03-06T15:49:59.387Z,72.14
2023-03-06T15:52:29.036Z,73.14
2023-03-06T15:54:58.584Z,73.09
2023-03-06T15:57:29.525Z,73.48
2023-03-06T16:00:00.984Z,74.28
2023-03-06T16:02:30.501Z,73.59
2023-03-06T16:05:02.597Z,75.88
2023-03-06T16:07:32.156Z,75.50
2023-03-06T16:10:01.723Z,75.19
2023-03-06T16:12:31.828Z,75.29
2023-03-06T16:15:03.154Z,75.70
2023-03-06T16:17:32.737Z,76.68
2023-03-06T16:20:01.332Z,77.19
2023-03-06T16:22:30.772Z,78.74
2023-03-06T16:25:00.346Z,78.19
2023-03-06T16:27:30.016Z,78.49
2023-03-06T16:29:59.548Z,78.96
2023-03-06T16:32:29.168Z,78.79
2023-03-06T16:34:57.973Z,79.11
2023-03-06T16:37:27.700Z,79.47
2023-03-06T16:39:57.115Z,79.50
2023-03-06T16:42:26.722Z,79.21
2023-03-06T16:44:55.457Z,80.16
2023-03-06T16:47:25.946Z,80.37
2023-03-06T16:49:58.183Z,82.42
2023-03-06T16:52:28.283Z,81.96
2023-03-06T16:54:57.035Z,80.00
2023-03-06T16:57:31.605Z,80.41
2023-03-06T17:00:01.198Z,79.74
2023-03-06T17:02:29.942Z,81.92
2023-03-06T17:04:58.999Z,81.70
2023-03-06T17:07:29.670Z,81.10
2023-03-06T17:09:59.350Z,81.89
2023-03-06T17:12:28.844Z,81.98
2023-03-06T17:14:57.646Z,82.15
2023-03-06T17:17:26.321Z,82.03
2023-03-06T17:19:55.819Z,81.52
2023-03-06T17:22:24.858Z,82.26
2023-03-06T17:24:55.034Z,82.95
2023-03-06T17:27:24.546Z,82.63
2023-03-06T17:29:57.810Z,81.90
2023-03-06T17:32:28.958Z,82.36
2023-03-06T17:34:58.855Z,82.69
2023-03-06T17:37:28.692Z,81.87
2023-03-06T17:39:57.436Z,82.07
2023-03-06T17:42:26.975Z,81.96
2023-03-06T17:44:57.492Z,81.64
2023-03-06T17:47:28.037Z,80.40
2023-03-06T17:49:57.568Z,81.35
2023-03-06T17:52:29.642Z,80.81
2023-03-06T17:54:59.083Z,82.00
2023-03-06T17:57:27.772Z,81.93
2023-03-06T17:59:56.518Z,81.97
2023-03-06T18:02:26.062Z,82.08
2023-03-06T18:04:58.301Z,82.66
2023-03-06T18:07:27.816Z,83.10
2023-03-06T18:09:57.415Z,83.42
2023-03-06T18:12:27.059Z,82.51
2023-03-06T18:14:56.849Z,82.93
2023-03-06T18:17:26.535Z,83.55
2023-03-06T18:19:56.880Z,84.06
2023-03-06T18:22:26.328Z,84.00
2023-03-06T18:24:56.138Z,84.90
2023-03-06T18:27:25.658Z,84.09
2023-03-06T18:29:55.748Z,83.91
2023-03-06T18:32:24.467Z,84.35
2023-03-06T18:34:55.190Z,84.75
2023-03-06T18:37:25.089Z,84.32
2023-03-06T18:39:55.018Z,83.98
2023-03-06T18:42:24.825Z,84.50
2023-03-06T18:44:53.547Z,84.06
2023-03-06T18:47:22.997Z,84.66
2023-03-06T18:49:51.648Z,84.62
2023-03-06T18:52:20.524Z,85.02
2023-03-06T18:54:52.327Z,85.07
2023-03-06T18:57:21.148Z,85.36
2023-03-06T18:59:49.040Z,85.44
2023-03-06T19:02:17.840Z,86.03
2023-03-06T19:04:47.478Z,85.82
2023-03-06T19:07:15.243Z,85.83
2023-03-06T19:09:44.757Z,86.41
2023-03-06T19:12:13.482Z,86.30
2023-03-06T19:14:44.378Z,86.38
2023-03-06T19:17:13.892Z,86.17
2023-03-06T19:19:42.535Z,87.19
2023-03-06T19:22:11.305Z,87.11
2023-03-06T19:24:40.772Z,87.51
2023-03-06T19:27:11.592Z,87.84
2023-03-06T19:29:42.059Z,88.30
2023-03-06T19:32:11.654Z,87.04
2023-03-06T19:34:40.422Z,86.11
2023-03-06T19:37:09.994Z,86.21
2023-03-06T19:39:39.587Z,86.97
2023-03-06T19:42:07.492Z,87.66
2023-03-06T19:44:37.946Z,87.16
2023-03-06T19:47:07.632Z,89.01
2023-03-06T19:49:38.862Z,89.64
2023-03-06T19:52:08.349Z,89.97
2023-03-06T19:54:38.046Z,89.54
2023-03-06T19:57:07.923Z,89.54
2023-03-06T19:59:37.433Z,91.18
2023-03-06T20:02:07.356Z,94.01
2023-03-06T20:04:37.172Z,93.86
2023-03-06T20:07:06.966Z,93.26
2023-03-06T20:09:36.568Z,94.61
2023-03-06T20:12:08.264Z,96.61
2023-03-06T20:14:37.956Z,97.29
2023-03-06T20:17:08.134Z,96.04
2023-03-06T20:19:37.837Z,97.06
2023-03-06T20:22:07.503Z,98.51
2023-03-06T20:24:37.063Z,97.45
2023-03-06T20:27:06.685Z,98.48
2023-03-06T20:29:36.301Z,97.67
2023-03-06T20:32:06.193Z,97.89
2023-03-06T20:34:39.144Z,98.21
2023-03-06T20:37:11.982Z,98.53
2023-03-06T20:39:41.640Z,99.21
2023-03-06T20:42:11.465Z,99.97
2023-03-06T20:44:41.400Z,100.00
2023-03-06T20:47:11.008Z,100.00
2023-03-06T20:49:40.624Z,100.00
2023-03-06T20:52:10.182Z,99.33
2023-03-06T20:54:39.990Z,99.07
2023-03-06T20:57:09.544Z,99.30
2023-03-06T20:59:39.188Z,99.97
2023-03-06T21:02:09.817Z,99.72
2023-03-06T21:04:41.160Z,99.52
2023-03-06T21:07:10.812Z,99.76
2023-03-06T21:09:40.351Z,98.51
2023-03-06T21:12:09.864Z,100.00
2023-03-06T21:14:39.390Z,99.98
2023-03-06T21:17:08.872Z,99.54
2023-03-06T21:19:38.386Z,98.35
2023-03-06T21:22:07.591Z,97.59
2023-03-06T21:24:37.436Z,98.53
2023-03-06T21:27:06.972Z,98.70
2023-03-06T21:29:36.616Z,99.33
2023-03-06T21:32:06.534Z,99.76
2023-03-06T21:34:36.166Z,100.00
2023-03-06T21:37:05.687Z,100.00
2023-03-06T21:39:35.481Z,100.00
2023-03-06T21:42:05.823Z,100.00
2023-03-06T21:44:35.352Z,100.00
2023-03-06T21:47:05.220Z,100.00
2023-03-06T21:49:34.881Z,100.00
2023-03-06T21:52:04.932Z,100.00
2023-03-06T21:54:35.431Z,100.00
2023-03-06T21:57:05.338Z,100.00
2023-03-06T21:59:34.939Z,100.00
2023-03-06T22:02:04.693Z,100.00
2023-03-06T22:04:34.418Z,100.00
2023-03-06T22:07:04.100Z,100.00
2023-03-06T22:09:35.877Z,100.00
2023-03-06T22:12:06.078Z,100.00
2023-03-06T22:14:35.708Z,100.00
2023-03-06T22:17:05.446Z,100.00
2023-03-06T22:19:35.336Z,100.00
2023-03-06T22:22:05.552Z,100.00
2023-03-06T22:24:35.220Z,100.00
2023-03-06T22:27:05.170Z,100.00
2023-03-06T22:29:34.852Z,100.00
2023-03-06T22:32:04.656Z,100.00
2023-03-06T22:34:34.509Z,100.00
2023-03-06T22:37:04.273Z,100.00
2023-03-06T22:39:33.753Z,100.00
2023-03-06T22:42:03.545Z,100.00
2023-03-06T22:44:33.013Z,100.00
2023-03-06T22:47:02.504Z,100.00
2023-03-06T22:49:32.691Z,100.00
2023-03-06T22:52:02.179Z,100.00
2023-03-06T22:54:31.077Z,100.00
2023-03-06T22:56:59.776Z,100.00
2023-03-06T22:59:28.536Z,100.00
2023-03-06T23:01:57.201Z,100.00
2023-03-06T23:04:26.027Z,100.00
2023-03-06T23:06:55.894Z,100.00
2023-03-06T23:09:25.291Z,100.00
2023-03-06T23:11:53.982Z,100.00
2023-03-06T23:14:22.702Z,100.00
2023-03-06T23:16:51.880Z,100.00
2023-03-06T23:19:21.335Z,100.00
2023-03-06T23:21:50.842Z,100.00
2023-03-06T23:24:20.344Z,100.00
2023-03-06T23:26:49.374Z,100.00
2023-03-06T23:29:18.816Z,100.00
2023-03-06T23:31:48.348Z,100.00
2023-03-06T23:34:17.919Z,100.00
2023-03-06T23:36:47.461Z,100.00
2023-03-06T23:39:16.919Z,100.00
2023-03-06T23:41:46.400Z,100.00
2023-03-06T23:44:15.933Z,100.00
2023-03-06T23:46:45.462Z,100.00
2023-03-06T23:49:15.201Z,100.00
2023-03-06T23:51:44.756Z,100.00
2023-03-06T23:54:12.523Z,100.00
2023-03-06T23:56:42.052Z,100.00
2023-03-06T23:59:13.056Z,100.00
